Harrison, Maine
Current Conditions -  °F | °C
As of 5:54 PM on Thursday 27 Nov 2014 (Local Time) from KIZG Reporting Station
Overcast Overcast  
Wind Chill: 24°   Ceiling: 3300
Heat Index: 29°   Visibility: 10mi
Dew Point: 21°   Wind: 5mph
Humidity: 72%   Direction: 50°NE
Pressure: 29.98"   Gusts: NA
Location:  44.11°N, 70.68°W
Report Text: KIZG 272254Z AUTO 05004KT 10SM OVC033 M02/M06 A2998 RMK AO2 SLP160 T10171061
Loading
Personal Weather Stations






























Interactive Weather Map New forecast layout! Learn more

10-Day Weather Forecast

Advertisements
Track Severe Weather on mobile